Butte Creek, California
Current Conditions -  °F | °C
As of 3:47 PM on Wednesday 26 Nov 2014 (Local Time) from KCIC Reporting Station
Broken Clouds Broken Clouds  
Wind Chill: 63°   Ceiling: 20000
Heat Index: 63°   Visibility: 40mi
Dew Point: 45°   Wind: 0mph
Humidity: 52%   Direction: NA
Pressure: 30.24"   Gusts: NA
Location:  39.71°N, 121.809°W
Report Text: KCIC 262347Z 00000KT 40SM SCT150 BKN200 17/07 A3024
Loading
Personal Weather Stations






























Interactive Weather Map New forecast layout! Learn more

10-Day Weather Forecast

Advertisements
Track Severe Weather on mobile